Lens, Belgium
Current Conditions -  °F | °C
As of 10:03 PM on Tuesday 27 Jan 2015 (Local Time) from EBCV Reporting Station
Broken Clouds Broken Clouds  
Wind Chill:   Ceiling: 4200
Heat Index:   Visibility: 4mi
Dew Point:   Wind: 5mph
Humidity: 93%   Direction: 230°SW
Pressure: 30.27"   Gusts: NA
Location:  50.56°N, 3.9°E
Report Text: EBCV 272103Z AUTO 23004KT 6000 FEW013/// SCT027/// BKN042/// 04/03 Q1025 WHT
Loading
Personal Weather Stations






























Interactive Weather Map New forecast layout! Learn more

10-Day Weather Forecast

Advertisements
Track Severe Weather on mobile